sensor_id;sensor_type;location;lat;lon;timestamp;P1;durP1;ratioP1;P2;durP2;ratioP2
2123;SDS011;1068;52.460;13.528;2022-11-27T00:02:22;14.10;;;10.13;;
2123;SDS011;1068;52.460;13.528;2022-11-27T00:04:50;14.57;;;10.10;;
2123;SDS011;1068;52.460;13.528;2022-11-27T00:07:17;18.23;;;10.57;;
2123;SDS011;1068;52.460;13.528;2022-11-27T00:09:45;20.07;;;11.67;;
2123;SDS011;1068;52.460;13.528;2022-11-27T00:12:12;15.60;;;10.77;;
2123;SDS011;1068;52.460;13.528;2022-11-27T00:14:39;14.83;;;10.13;;
2123;SDS011;1068;52.460;13.528;2022-11-27T00:17:06;14.40;;;9.73;;
2123;SDS011;1068;52.460;13.528;2022-11-27T00:19:34;13.63;;;9.03;;
2123;SDS011;1068;52.460;13.528;2022-11-27T00:22:02;13.80;;;10.90;;
2123;SDS011;1068;52.460;13.528;2022-11-27T00:24:30;15.87;;;9.50;;
2123;SDS011;1068;52.460;13.528;2022-11-27T00:26:57;21.47;;;10.10;;
2123;SDS011;1068;52.460;13.528;2022-11-27T00:29:25;14.90;;;9.40;;
2123;SDS011;1068;52.460;13.528;2022-11-27T00:31:53;12.00;;;9.00;;
2123;SDS011;1068;52.460;13.528;2022-11-27T00:34:21;12.47;;;9.40;;
2123;SDS011;1068;52.460;13.528;2022-11-27T00:36:48;12.97;;;9.10;;
2123;SDS011;1068;52.460;13.528;2022-11-27T00:39:17;10.27;;;7.70;;
2123;SDS011;1068;52.460;13.528;2022-11-27T00:41:44;12.57;;;9.83;;
2123;SDS011;1068;52.460;13.528;2022-11-27T00:44:11;10.33;;;9.20;;
2123;SDS011;1068;52.460;13.528;2022-11-27T00:46:39;12.90;;;8.53;;
2123;SDS011;1068;52.460;13.528;2022-11-27T00:49:07;13.00;;;9.70;;
2123;SDS011;1068;52.460;13.528;2022-11-27T00:51:34;15.03;;;8.93;;
2123;SDS011;1068;52.460;13.528;2022-11-27T00:54:01;14.33;;;9.80;;
2123;SDS011;1068;52.460;13.528;2022-11-27T00:56:30;14.20;;;9.80;;
2123;SDS011;1068;52.460;13.528;2022-11-27T00:58:58;12.10;;;8.50;;
2123;SDS011;1068;52.460;13.528;2022-11-27T01:01:26;11.03;;;8.47;;
2123;SDS011;1068;52.460;13.528;2022-11-27T01:03:53;10.23;;;8.53;;
2123;SDS011;1068;52.460;13.528;2022-11-27T01:06:21;13.73;;;10.13;;
2123;SDS011;1068;52.460;13.528;2022-11-27T01:08:49;13.40;;;9.37;;
2123;SDS011;1068;52.460;13.528;2022-11-27T01:11:17;17.27;;;9.47;;
2123;SDS011;1068;52.460;13.528;2022-11-27T01:13:47;15.10;;;9.53;;
2123;SDS011;1068;52.460;13.528;2022-11-27T01:16:15;12.90;;;8.90;;
2123;SDS011;1068;52.460;13.528;2022-11-27T01:18:43;10.53;;;8.63;;
2123;SDS011;1068;52.460;13.528;2022-11-27T01:21:11;21.77;;;9.03;;
2123;SDS011;1068;52.460;13.528;2022-11-27T01:23:39;12.83;;;9.30;;
2123;SDS011;1068;52.460;13.528;2022-11-27T01:26:07;13.27;;;8.53;;
2123;SDS011;1068;52.460;13.528;2022-11-27T01:28:34;11.07;;;9.20;;
2123;SDS011;1068;52.460;13.528;2022-11-27T01:31:05;12.63;;;8.33;;
2123;SDS011;1068;52.460;13.528;2022-11-27T01:33:33;16.20;;;9.60;;
2123;SDS011;1068;52.460;13.528;2022-11-27T01:36:01;15.97;;;10.13;;
2123;SDS011;1068;52.460;13.528;2022-11-27T01:38:28;16.50;;;9.97;;
2123;SDS011;1068;52.460;13.528;2022-11-27T01:40:56;15.40;;;9.77;;
2123;SDS011;1068;52.460;13.528;2022-11-27T01:43:37;20.03;;;10.90;;
2123;SDS011;1068;52.460;13.528;2022-11-27T01:46:11;15.60;;;10.83;;
2123;SDS011;1068;52.460;13.528;2022-11-27T01:48:38;14.07;;;8.53;;
2123;SDS011;1068;52.460;13.528;2022-11-27T01:51:06;10.20;;;7.50;;
2123;SDS011;1068;52.460;13.528;2022-11-27T01:53:33;11.40;;;8.87;;
2123;SDS011;1068;52.460;13.528;2022-11-27T01:56:00;13.50;;;8.13;;
2123;SDS011;1068;52.460;13.528;2022-11-27T01:58:29;12.10;;;8.60;;
2123;SDS011;1068;52.460;13.528;2022-11-27T02:00:57;23.57;;;11.50;;
2123;SDS011;1068;52.460;13.528;2022-11-27T02:03:25;33.10;;;19.50;;
2123;SDS011;1068;52.460;13.528;2022-11-27T02:05:53;30.90;;;15.90;;
2123;SDS011;1068;52.460;13.528;2022-11-27T02:08:20;25.70;;;14.90;;
2123;SDS011;1068;52.460;13.528;2022-11-27T02:10:49;27.20;;;13.40;;
2123;SDS011;1068;52.460;13.528;2022-11-27T02:13:19;20.17;;;13.43;;
2123;SDS011;1068;52.460;13.528;2022-11-27T02:15:48;17.90;;;12.30;;
2123;SDS011;1068;52.460;13.528;2022-11-27T02:18:18;18.97;;;11.50;;
2123;SDS011;1068;52.460;13.528;2022-11-27T02:20:51;13.97;;;10.17;;
2123;SDS011;1068;52.460;13.528;2022-11-27T02:23:37;11.73;;;9.50;;
2123;SDS011;1068;52.460;13.528;2022-11-27T02:26:21;14.17;;;11.27;;
2123;SDS011;1068;52.460;13.528;2022-11-27T02:28:56;25.57;;;13.27;;
2123;SDS011;1068;52.460;13.528;2022-11-27T02:31:24;16.00;;;11.80;;
2123;SDS011;1068;52.460;13.528;2022-11-27T02:33:55;29.37;;;18.90;;
2123;SDS011;1068;52.460;13.528;2022-11-27T02:36:25;30.50;;;16.17;;
2123;SDS011;1068;52.460;13.528;2022-11-27T02:38:57;20.80;;;12.77;;
2123;SDS011;1068;52.460;13.528;2022-11-27T02:41:26;19.10;;;10.97;;
2123;SDS011;1068;52.460;13.528;2022-11-27T02:43:54;15.90;;;11.13;;
2123;SDS011;1068;52.460;13.528;2022-11-27T02:46:23;18.70;;;11.10;;
2123;SDS011;1068;52.460;13.528;2022-11-27T02:48:54;13.17;;;10.93;;
2123;SDS011;1068;52.460;13.528;2022-11-27T02:51:24;16.83;;;11.00;;
2123;SDS011;1068;52.460;13.528;2022-11-27T02:53:53;18.00;;;11.90;;
2123;SDS011;1068;52.460;13.528;2022-11-27T02:56:23;15.37;;;11.00;;
2123;SDS011;1068;52.460;13.528;2022-11-27T02:58:51;18.40;;;10.73;;
2123;SDS011;1068;52.460;13.528;2022-11-27T03:01:22;12.43;;;9.90;;
2123;SDS011;1068;52.460;13.528;2022-11-27T03:03:51;12.10;;;9.87;;
2123;SDS011;1068;52.460;13.528;2022-11-27T03:06:19;17.07;;;11.37;;
2123;SDS011;1068;52.460;13.528;2022-11-27T03:08:49;14.83;;;10.73;;
2123;SDS011;1068;52.460;13.528;2022-11-27T03:11:19;13.90;;;10.50;;
2123;SDS011;1068;52.460;13.528;2022-11-27T03:13:47;17.80;;;11.80;;
2123;SDS011;1068;52.460;13.528;2022-11-27T03:16:19;23.97;;;11.57;;
2123;SDS011;1068;52.460;13.528;2022-11-27T03:18:51;16.17;;;11.97;;
2123;SDS011;1068;52.460;13.528;2022-11-27T03:21:27;19.07;;;12.57;;
2123;SDS011;1068;52.460;13.528;2022-11-27T03:23:56;13.93;;;10.10;;
2123;SDS011;1068;52.460;13.528;2022-11-27T03:26:24;18.83;;;11.80;;
2123;SDS011;1068;52.460;13.528;2022-11-27T03:28:51;14.87;;;10.20;;
2123;SDS011;1068;52.460;13.528;2022-11-27T03:31:20;19.97;;;13.80;;
2123;SDS011;1068;52.460;13.528;2022-11-27T03:33:49;16.37;;;10.87;;
2123;SDS011;1068;52.460;13.528;2022-11-27T03:36:17;16.60;;;11.27;;
2123;SDS011;1068;52.460;13.528;2022-11-27T03:38:44;16.77;;;11.17;;
2123;SDS011;1068;52.460;13.528;2022-11-27T03:41:14;14.97;;;10.43;;
2123;SDS011;1068;52.460;13.528;2022-11-27T03:43:47;17.83;;;10.83;;
2123;SDS011;1068;52.460;13.528;2022-11-27T03:46:20;15.80;;;11.20;;
2123;SDS011;1068;52.460;13.528;2022-11-27T03:48:53;17.00;;;11.30;;
2123;SDS011;1068;52.460;13.528;2022-11-27T03:51:25;16.43;;;10.57;;
2123;SDS011;1068;52.460;13.528;2022-11-27T03:53:57;18.03;;;10.77;;
2123;SDS011;1068;52.460;13.528;2022-11-27T03:56:28;18.10;;;9.60;;
2123;SDS011;1068;52.460;13.528;2022-11-27T03:59:00;17.40;;;10.23;;
2123;SDS011;1068;52.460;13.528;2022-11-27T04:01:28;17.70;;;10.40;;
2123;SDS011;1068;52.460;13.528;2022-11-27T04:03:58;11.87;;;9.27;;
2123;SDS011;1068;52.460;13.528;2022-11-27T04:06:25;13.40;;;9.50;;
2123;SDS011;1068;52.460;13.528;2022-11-27T04:08:53;12.50;;;9.20;;
2123;SDS011;1068;52.460;13.528;2022-11-27T04:11:20;16.27;;;11.00;;
2123;SDS011;1068;52.460;13.528;2022-11-27T04:13:47;13.90;;;8.97;;
2123;SDS011;1068;52.460;13.528;2022-11-27T04:16:16;20.93;;;11.13;;
2123;SDS011;1068;52.460;13.528;2022-11-27T04:18:43;16.27;;;9.77;;
2123;SDS011;1068;52.460;13.528;2022-11-27T04:21:12;13.67;;;9.90;;
2123;SDS011;1068;52.460;13.528;2022-11-27T04:23:40;13.60;;;9.73;;
2123;SDS011;1068;52.460;13.528;2022-11-27T04:26:08;13.30;;;9.47;;
2123;SDS011;1068;52.460;13.528;2022-11-27T04:28:35;14.77;;;10.10;;
2123;SDS011;1068;52.460;13.528;2022-11-27T04:31:02;13.93;;;10.47;;
2123;SDS011;1068;52.460;13.528;2022-11-27T04:33:32;13.50;;;9.70;;
2123;SDS011;1068;52.460;13.528;2022-11-27T04:35:59;15.53;;;8.40;;
2123;SDS011;1068;52.460;13.528;2022-11-27T04:38:27;13.60;;;8.63;;
2123;SDS011;1068;52.460;13.528;2022-11-27T04:40:55;14.50;;;9.93;;
2123;SDS011;1068;52.460;13.528;2022-11-27T04:43:22;16.27;;;9.40;;
2123;SDS011;1068;52.460;13.528;2022-11-27T04:45:49;13.13;;;9.93;;
2123;SDS011;1068;52.460;13.528;2022-11-27T04:48:16;16.00;;;8.97;;
2123;SDS011;1068;52.460;13.528;2022-11-27T04:50:44;11.60;;;8.80;;
2123;SDS011;1068;52.460;13.528;2022-11-27T04:53:11;15.07;;;9.10;;
2123;SDS011;1068;52.460;13.528;2022-11-27T04:55:40;11.73;;;8.53;;
2123;SDS011;1068;52.460;13.528;2022-11-27T04:58:07;11.80;;;9.07;;
2123;SDS011;1068;52.460;13.528;2022-11-27T05:00:34;15.07;;;9.13;;
2123;SDS011;1068;52.460;13.528;2022-11-27T05:03:01;14.37;;;9.27;;
2123;SDS011;1068;52.460;13.528;2022-11-27T05:05:28;15.17;;;9.47;;
2123;SDS011;1068;52.460;13.528;2022-11-27T05:07:56;10.40;;;8.97;;
2123;SDS011;1068;52.460;13.528;2022-11-27T05:10:23;10.60;;;8.53;;
2123;SDS011;1068;52.460;13.528;2022-11-27T05:12:52;11.90;;;8.60;;
2123;SDS011;1068;52.460;13.528;2022-11-27T05:15:19;14.43;;;8.90;;
2123;SDS011;1068;52.460;13.528;2022-11-27T05:17:48;12.00;;;8.47;;
2123;SDS011;1068;52.460;13.528;2022-11-27T05:20:15;13.10;;;8.23;;
2123;SDS011;1068;52.460;13.528;2022-11-27T05:22:43;13.30;;;8.37;;
2123;SDS011;1068;52.460;13.528;2022-11-27T05:25:12;16.60;;;9.30;;
2123;SDS011;1068;52.460;13.528;2022-11-27T05:27:39;14.60;;;9.07;;
2123;SDS011;1068;52.460;13.528;2022-11-27T05:30:08;14.93;;;9.37;;
2123;SDS011;1068;52.460;13.528;2022-11-27T05:32:35;15.87;;;9.83;;
2123;SDS011;1068;52.460;13.528;2022-11-27T05:35:03;13.60;;;9.80;;
2123;SDS011;1068;52.460;13.528;2022-11-27T05:37:30;15.50;;;9.60;;
2123;SDS011;1068;52.460;13.528;2022-11-27T05:39:57;10.57;;;8.57;;
2123;SDS011;1068;52.460;13.528;2022-11-27T05:42:25;20.90;;;10.40;;
2123;SDS011;1068;52.460;13.528;2022-11-27T05:44:52;14.33;;;9.97;;
2123;SDS011;1068;52.460;13.528;2022-11-27T05:47:21;11.80;;;9.50;;
2123;SDS011;1068;52.460;13.528;2022-11-27T05:49:48;16.07;;;9.73;;
2123;SDS011;1068;52.460;13.528;2022-11-27T05:52:15;14.13;;;10.30;;
2123;SDS011;1068;52.460;13.528;2022-11-27T05:54:43;17.00;;;9.70;;
2123;SDS011;1068;52.460;13.528;2022-11-27T05:57:10;12.20;;;9.20;;
2123;SDS011;1068;52.460;13.528;2022-11-27T05:59:37;15.43;;;9.57;;
2123;SDS011;1068;52.460;13.528;2022-11-27T06:02:04;13.07;;;10.47;;
2123;SDS011;1068;52.460;13.528;2022-11-27T06:04:33;12.27;;;10.30;;
2123;SDS011;1068;52.460;13.528;2022-11-27T06:07:00;13.33;;;9.00;;
2123;SDS011;1068;52.460;13.528;2022-11-27T06:09:27;14.93;;;9.67;;
2123;SDS011;1068;52.460;13.528;2022-11-27T06:11:55;12.90;;;9.40;;
2123;SDS011;1068;52.460;13.528;2022-11-27T06:14:22;15.63;;;9.70;;
2123;SDS011;1068;52.460;13.528;2022-11-27T06:16:49;21.70;;;10.47;;
2123;SDS011;1068;52.460;13.528;2022-11-27T06:19:16;15.40;;;9.40;;
2123;SDS011;1068;52.460;13.528;2022-11-27T06:21:45;13.30;;;9.20;;
2123;SDS011;1068;52.460;13.528;2022-11-27T06:24:12;13.60;;;9.17;;
2123;SDS011;1068;52.460;13.528;2022-11-27T06:26:39;11.10;;;9.23;;
2123;SDS011;1068;52.460;13.528;2022-11-27T06:29:07;13.03;;;9.60;;
2123;SDS011;1068;52.460;13.528;2022-11-27T06:31:35;11.93;;;8.70;;
2123;SDS011;1068;52.460;13.528;2022-11-27T06:34:03;14.07;;;8.70;;
2123;SDS011;1068;52.460;13.528;2022-11-27T06:36:31;15.93;;;11.87;;
2123;SDS011;1068;52.460;13.528;2022-11-27T06:39:00;12.13;;;10.90;;
2123;SDS011;1068;52.460;13.528;2022-11-27T06:41:27;17.20;;;11.40;;
2123;SDS011;1068;52.460;13.528;2022-11-27T06:43:56;14.87;;;10.67;;
2123;SDS011;1068;52.460;13.528;2022-11-27T06:46:23;14.83;;;10.57;;
2123;SDS011;1068;52.460;13.528;2022-11-27T06:48:51;14.17;;;10.20;;
2123;SDS011;1068;52.460;13.528;2022-11-27T06:51:21;17.13;;;9.97;;
2123;SDS011;1068;52.460;13.528;2022-11-27T06:53:49;12.60;;;9.67;;
2123;SDS011;1068;52.460;13.528;2022-11-27T06:56:18;10.53;;;9.43;;
2123;SDS011;1068;52.460;13.528;2022-11-27T06:58:49;11.23;;;8.97;;
2123;SDS011;1068;52.460;13.528;2022-11-27T07:01:16;13.10;;;9.07;;
2123;SDS011;1068;52.460;13.528;2022-11-27T07:03:43;12.37;;;10.60;;
2123;SDS011;1068;52.460;13.528;2022-11-27T07:06:12;14.73;;;10.70;;
2123;SDS011;1068;52.460;13.528;2022-11-27T07:08:40;12.00;;;9.10;;
2123;SDS011;1068;52.460;13.528;2022-11-27T07:11:09;11.83;;;10.10;;
2123;SDS011;1068;52.460;13.528;2022-11-27T07:13:38;13.27;;;10.03;;
2123;SDS011;1068;52.460;13.528;2022-11-27T07:16:06;11.33;;;8.80;;
2123;SDS011;1068;52.460;13.528;2022-11-27T07:18:34;11.98;;;10.07;;
2123;SDS011;1068;52.460;13.528;2022-11-27T07:21:02;10.90;;;9.20;;
2123;SDS011;1068;52.460;13.528;2022-11-27T07:23:29;12.83;;;9.57;;
2123;SDS011;1068;52.460;13.528;2022-11-27T07:25:57;13.50;;;9.23;;
2123;SDS011;1068;52.460;13.528;2022-11-27T07:28:24;13.70;;;10.03;;
2123;SDS011;1068;52.460;13.528;2022-11-27T07:30:56;13.20;;;8.80;;
2123;SDS011;1068;52.460;13.528;2022-11-27T07:33:24;12.33;;;9.37;;
2123;SDS011;1068;52.460;13.528;2022-11-27T07:35:56;16.83;;;10.77;;
2123;SDS011;1068;52.460;13.528;2022-11-27T07:38:24;14.23;;;10.33;;
2123;SDS011;1068;52.460;13.528;2022-11-27T07:40:51;15.37;;;10.47;;
2123;SDS011;1068;52.460;13.528;2022-11-27T07:43:19;11.40;;;10.03;;
2123;SDS011;1068;52.460;13.528;2022-11-27T07:45:46;11.60;;;10.40;;
2123;SDS011;1068;52.460;13.528;2022-11-27T07:48:14;13.37;;;11.03;;
2123;SDS011;1068;52.460;13.528;2022-11-27T07:50:42;15.30;;;11.33;;
2123;SDS011;1068;52.460;13.528;2022-11-27T07:53:10;14.77;;;10.70;;
2123;SDS011;1068;52.460;13.528;2022-11-27T07:55:37;15.20;;;12.30;;
2123;SDS011;1068;52.460;13.528;2022-11-27T07:58:04;16.63;;;11.37;;
2123;SDS011;1068;52.460;13.528;2022-11-27T08:00:31;13.10;;;10.00;;
2123;SDS011;1068;52.460;13.528;2022-11-27T08:02:58;14.00;;;11.83;;
2123;SDS011;1068;52.460;13.528;2022-11-27T08:05:27;12.13;;;10.53;;
2123;SDS011;1068;52.460;13.528;2022-11-27T08:07:55;16.03;;;12.47;;
2123;SDS011;1068;52.460;13.528;2022-11-27T08:10:25;18.57;;;12.30;;
2123;SDS011;1068;52.460;13.528;2022-11-27T08:12:52;14.00;;;11.20;;
2123;SDS011;1068;52.460;13.528;2022-11-27T08:15:20;13.80;;;10.90;;
2123;SDS011;1068;52.460;13.528;2022-11-27T08:17:47;16.87;;;10.60;;
2123;SDS011;1068;52.460;13.528;2022-11-27T08:20:15;14.30;;;11.50;;
2123;SDS011;1068;52.460;13.528;2022-11-27T08:22:45;13.03;;;11.10;;
2123;SDS011;1068;52.460;13.528;2022-11-27T08:25:12;16.30;;;11.43;;
2123;SDS011;1068;52.460;13.528;2022-11-27T08:27:40;17.90;;;11.03;;
2123;SDS011;1068;52.460;13.528;2022-11-27T08:30:07;17.53;;;11.73;;
2123;SDS011;1068;52.460;13.528;2022-11-27T08:32:37;13.87;;;10.37;;
2123;SDS011;1068;52.460;13.528;2022-11-27T08:35:05;15.27;;;10.97;;
2123;SDS011;1068;52.460;13.528;2022-11-27T08:37:32;18.63;;;11.33;;
2123;SDS011;1068;52.460;13.528;2022-11-27T08:40:01;14.00;;;9.37;;
2123;SDS011;1068;52.460;13.528;2022-11-27T08:42:28;15.30;;;10.43;;
2123;SDS011;1068;52.460;13.528;2022-11-27T08:44:55;14.33;;;10.03;;
2123;SDS011;1068;52.460;13.528;2022-11-27T08:47:23;12.50;;;9.93;;
2123;SDS011;1068;52.460;13.528;2022-11-27T08:49:50;12.37;;;9.90;;
2123;SDS011;1068;52.460;13.528;2022-11-27T08:52:17;12.60;;;10.47;;
2123;SDS011;1068;52.460;13.528;2022-11-27T08:54:45;16.10;;;11.33;;
2123;SDS011;1068;52.460;13.528;2022-11-27T08:57:15;13.53;;;9.90;;
2123;SDS011;1068;52.460;13.528;2022-11-27T08:59:42;12.57;;;9.60;;
2123;SDS011;1068;52.460;13.528;2022-11-27T09:02:10;10.43;;;9.10;;
2123;SDS011;1068;52.460;13.528;2022-11-27T09:04:37;23.43;;;12.13;;
2123;SDS011;1068;52.460;13.528;2022-11-27T09:07:05;11.27;;;9.50;;
2123;SDS011;1068;52.460;13.528;2022-11-27T09:09:32;12.00;;;10.63;;
2123;SDS011;1068;52.460;13.528;2022-11-27T09:12:00;18.50;;;10.10;;
2123;SDS011;1068;52.460;13.528;2022-11-27T09:14:28;12.33;;;8.83;;
2123;SDS011;1068;52.460;13.528;2022-11-27T09:16:55;11.40;;;9.97;;
2123;SDS011;1068;52.460;13.528;2022-11-27T09:19:23;11.10;;;9.20;;
2123;SDS011;1068;52.460;13.528;2022-11-27T09:21:50;12.03;;;9.47;;
2123;SDS011;1068;52.460;13.528;2022-11-27T09:24:18;13.63;;;10.37;;
2123;SDS011;1068;52.460;13.528;2022-11-27T09:26:45;11.93;;;9.40;;
2123;SDS011;1068;52.460;13.528;2022-11-27T09:29:12;16.50;;;10.53;;
2123;SDS011;1068;52.460;13.528;2022-11-27T09:31:40;15.50;;;9.83;;
2123;SDS011;1068;52.460;13.528;2022-11-27T09:34:07;12.60;;;9.47;;
2123;SDS011;1068;52.460;13.528;2022-11-27T09:36:35;16.10;;;10.03;;
2123;SDS011;1068;52.460;13.528;2022-11-27T09:39:02;11.03;;;8.50;;
2123;SDS011;1068;52.460;13.528;2022-11-27T09:41:38;11.97;;;8.70;;
2123;SDS011;1068;52.460;13.528;2022-11-27T09:44:12;12.33;;;8.60;;
2123;SDS011;1068;52.460;13.528;2022-11-27T09:46:43;15.77;;;9.40;;
2123;SDS011;1068;52.460;13.528;2022-11-27T09:49:12;13.70;;;8.87;;
2123;SDS011;1068;52.460;13.528;2022-11-27T09:51:41;12.00;;;9.50;;
2123;SDS011;1068;52.460;13.528;2022-11-27T09:54:12;16.83;;;9.87;;
2123;SDS011;1068;52.460;13.528;2022-11-27T09:56:41;11.63;;;8.40;;
2123;SDS011;1068;52.460;13.528;2022-11-27T09:59:13;14.53;;;9.77;;
2123;SDS011;1068;52.460;13.528;2022-11-27T10:01:43;16.70;;;9.47;;
2123;SDS011;1068;52.460;13.528;2022-11-27T10:04:11;12.90;;;8.33;;
2123;SDS011;1068;52.460;13.528;2022-11-27T10:06:42;11.23;;;9.50;;
2123;SDS011;1068;52.460;13.528;2022-11-27T10:09:14;10.43;;;8.30;;
2123;SDS011;1068;52.460;13.528;2022-11-27T10:11:47;9.30;;;7.70;;
2123;SDS011;1068;52.460;13.528;2022-11-27T10:14:22;10.30;;;8.70;;
2123;SDS011;1068;52.460;13.528;2022-11-27T10:16:56;12.67;;;10.03;;
2123;SDS011;1068;52.460;13.528;2022-11-27T10:19:28;11.20;;;9.40;;
2123;SDS011;1068;52.460;13.528;2022-11-27T10:21:58;10.63;;;7.60;;
2123;SDS011;1068;52.460;13.528;2022-11-27T10:24:30;11.13;;;8.30;;
2123;SDS011;1068;52.460;13.528;2022-11-27T10:27:01;10.70;;;7.60;;
2123;SDS011;1068;52.460;13.528;2022-11-27T10:29:34;13.20;;;8.97;;
2123;SDS011;1068;52.460;13.528;2022-11-27T10:32:05;9.90;;;8.00;;
2123;SDS011;1068;52.460;13.528;2022-11-27T10:34:37;11.57;;;7.40;;
2123;SDS011;1068;52.460;13.528;2022-11-27T10:37:06;10.67;;;7.60;;
2123;SDS011;1068;52.460;13.528;2022-11-27T10:39:39;11.43;;;7.13;;
2123;SDS011;1068;52.460;13.528;2022-11-27T10:42:09;11.07;;;8.30;;
2123;SDS011;1068;52.460;13.528;2022-11-27T10:44:38;13.27;;;7.87;;
2123;SDS011;1068;52.460;13.528;2022-11-27T10:47:09;11.10;;;7.47;;
2123;SDS011;1068;52.460;13.528;2022-11-27T10:49:39;10.40;;;6.77;;
2123;SDS011;1068;52.460;13.528;2022-11-27T10:52:10;10.77;;;6.87;;
2123;SDS011;1068;52.460;13.528;2022-11-27T10:54:38;12.90;;;7.50;;
2123;SDS011;1068;52.460;13.528;2022-11-27T10:57:17;10.93;;;7.40;;
2123;SDS011;1068;52.460;13.528;2022-11-27T10:59:49;11.10;;;7.63;;
2123;SDS011;1068;52.460;13.528;2022-11-27T11:02:27;9.80;;;7.40;;
2123;SDS011;1068;52.460;13.528;2022-11-27T11:04:54;12.20;;;6.67;;
2123;SDS011;1068;52.460;13.528;2022-11-27T11:07:22;11.87;;;7.80;;
2123;SDS011;1068;52.460;13.528;2022-11-27T11:09:50;7.70;;;6.90;;
2123;SDS011;1068;52.460;13.528;2022-11-27T11:12:18;9.47;;;6.90;;
2123;SDS011;1068;52.460;13.528;2022-11-27T11:14:49;8.30;;;6.87;;
2123;SDS011;1068;52.460;13.528;2022-11-27T11:17:16;6.90;;;6.20;;
2123;SDS011;1068;52.460;13.528;2022-11-27T11:19:45;7.20;;;5.93;;
2123;SDS011;1068;52.460;13.528;2022-11-27T11:22:13;7.10;;;6.40;;
2123;SDS011;1068;52.460;13.528;2022-11-27T11:24:43;9.03;;;6.20;;
2123;SDS011;1068;52.460;13.528;2022-11-27T11:27:12;6.10;;;5.50;;
2123;SDS011;1068;52.460;13.528;2022-11-27T11:29:40;9.60;;;6.93;;
2123;SDS011;1068;52.460;13.528;2022-11-27T11:32:09;8.77;;;6.73;;
2123;SDS011;1068;52.460;13.528;2022-11-27T11:34:40;7.07;;;6.40;;
2123;SDS011;1068;52.460;13.528;2022-11-27T11:37:16;7.77;;;5.73;;
2123;SDS011;1068;52.460;13.528;2022-11-27T11:39:46;7.20;;;5.10;;
2123;SDS011;1068;52.460;13.528;2022-11-27T11:42:18;7.00;;;5.30;;
2123;SDS011;1068;52.460;13.528;2022-11-27T11:44:49;6.17;;;5.57;;
2123;SDS011;1068;52.460;13.528;2022-11-27T11:47:16;9.23;;;4.83;;
2123;SDS011;1068;52.460;13.528;2022-11-27T11:49:44;7.80;;;5.50;;
2123;SDS011;1068;52.460;13.528;2022-11-27T11:52:18;6.43;;;4.97;;
2123;SDS011;1068;52.460;13.528;2022-11-27T11:54:50;7.17;;;5.80;;
2123;SDS011;1068;52.460;13.528;2022-11-27T11:57:28;10.30;;;5.53;;
2123;SDS011;1068;52.460;13.528;2022-11-27T12:00:00;11.53;;;6.40;;
2123;SDS011;1068;52.460;13.528;2022-11-27T12:02:35;8.00;;;7.20;;
2123;SDS011;1068;52.460;13.528;2022-11-27T12:05:21;7.70;;;6.43;;
2123;SDS011;1068;52.460;13.528;2022-11-27T12:07:56;7.30;;;6.00;;
2123;SDS011;1068;52.460;13.528;2022-11-27T12:10:27;6.33;;;5.70;;
2123;SDS011;1068;52.460;13.528;2022-11-27T12:12:59;8.10;;;5.97;;
2123;SDS011;1068;52.460;13.528;2022-11-27T12:15:28;11.30;;;6.70;;
2123;SDS011;1068;52.460;13.528;2022-11-27T12:17:57;8.57;;;6.10;;
2123;SDS011;1068;52.460;13.528;2022-11-27T12:20:28;7.93;;;5.40;;
2123;SDS011;1068;52.460;13.528;2022-11-27T12:23:17;6.23;;;5.60;;
2123;SDS011;1068;52.460;13.528;2022-11-27T12:25:52;7.27;;;5.53;;
2123;SDS011;1068;52.460;13.528;2022-11-27T12:28:28;8.77;;;5.97;;
2123;SDS011;1068;52.460;13.528;2022-11-27T12:30:59;6.93;;;4.77;;
2123;SDS011;1068;52.460;13.528;2022-11-27T12:33:34;5.80;;;5.10;;
2123;SDS011;1068;52.460;13.528;2022-11-27T12:36:07;8.63;;;6.03;;
2123;SDS011;1068;52.460;13.528;2022-11-27T12:38:47;7.67;;;6.10;;
2123;SDS011;1068;52.460;13.528;2022-11-27T12:41:23;6.97;;;5.83;;
2123;SDS011;1068;52.460;13.528;2022-11-27T12:43:54;12.07;;;7.30;;
2123;SDS011;1068;52.460;13.528;2022-11-27T12:46:25;9.87;;;5.70;;
2123;SDS011;1068;52.460;13.528;2022-11-27T12:48:55;6.87;;;5.87;;
2123;SDS011;1068;52.460;13.528;2022-11-27T12:51:24;8.60;;;6.63;;
2123;SDS011;1068;52.460;13.528;2022-11-27T12:53:56;7.90;;;6.80;;
2123;SDS011;1068;52.460;13.528;2022-11-27T12:56:26;5.90;;;5.30;;
2123;SDS011;1068;52.460;13.528;2022-11-27T12:58:55;10.43;;;5.80;;
2123;SDS011;1068;52.460;13.528;2022-11-27T13:01:25;7.03;;;6.33;;
2123;SDS011;1068;52.460;13.528;2022-11-27T13:03:59;11.37;;;6.00;;
2123;SDS011;1068;52.460;13.528;2022-11-27T13:06:27;5.80;;;4.87;;
2123;SDS011;1068;52.460;13.528;2022-11-27T13:08:58;7.00;;;6.30;;
2123;SDS011;1068;52.460;13.528;2022-11-27T13:11:27;6.40;;;5.83;;
2123;SDS011;1068;52.460;13.528;2022-11-27T13:13:58;8.97;;;5.63;;
2123;SDS011;1068;52.460;13.528;2022-11-27T13:16:29;6.50;;;5.10;;
2123;SDS011;1068;52.460;13.528;2022-11-27T13:18:59;7.80;;;4.97;;
2123;SDS011;1068;52.460;13.528;2022-11-27T13:21:27;9.00;;;5.93;;
2123;SDS011;1068;52.460;13.528;2022-11-27T13:23:55;5.87;;;5.27;;
2123;SDS011;1068;52.460;13.528;2022-11-27T13:26:28;8.53;;;6.07;;
2123;SDS011;1068;52.460;13.528;2022-11-27T13:28:57;7.47;;;5.40;;
2123;SDS011;1068;52.460;13.528;2022-11-27T13:31:26;7.50;;;5.30;;
2123;SDS011;1068;52.460;13.528;2022-11-27T13:33:56;7.93;;;5.40;;
2123;SDS011;1068;52.460;13.528;2022-11-27T13:36:25;7.70;;;5.80;;
2123;SDS011;1068;52.460;13.528;2022-11-27T13:41:37;4.97;;;4.47;;
2123;SDS011;1068;52.460;13.528;2022-11-27T13:44:18;8.50;;;5.10;;
2123;SDS011;1068;52.460;13.528;2022-11-27T13:46:48;6.33;;;4.20;;
2123;SDS011;1068;52.460;13.528;2022-11-27T13:49:20;14.00;;;5.10;;
2123;SDS011;1068;52.460;13.528;2022-11-27T13:51:49;11.10;;;4.90;;
2123;SDS011;1068;52.460;13.528;2022-11-27T13:54:16;5.47;;;4.93;;
2123;SDS011;1068;52.460;13.528;2022-11-27T13:56:46;7.33;;;4.93;;
2123;SDS011;1068;52.460;13.528;2022-11-27T13:59:14;6.40;;;4.60;;
2123;SDS011;1068;52.460;13.528;2022-11-27T14:01:51;9.03;;;4.23;;
2123;SDS011;1068;52.460;13.528;2022-11-27T14:04:18;4.07;;;3.77;;
2123;SDS011;1068;52.460;13.528;2022-11-27T14:06:49;5.80;;;4.40;;
2123;SDS011;1068;52.460;13.528;2022-11-27T14:09:17;4.70;;;4.23;;
2123;SDS011;1068;52.460;13.528;2022-11-27T14:11:46;8.60;;;4.43;;
2123;SDS011;1068;52.460;13.528;2022-11-27T14:14:16;5.80;;;4.77;;
2123;SDS011;1068;52.460;13.528;2022-11-27T14:16:54;7.90;;;4.83;;
2123;SDS011;1068;52.460;13.528;2022-11-27T14:19:23;6.37;;;4.90;;
2123;SDS011;1068;52.460;13.528;2022-11-27T14:21:51;6.50;;;4.30;;
2123;SDS011;1068;52.460;13.528;2022-11-27T14:24:22;9.13;;;5.20;;
2123;SDS011;1068;52.460;13.528;2022-11-27T14:26:52;4.20;;;3.77;;
2123;SDS011;1068;52.460;13.528;2022-11-27T14:29:19;6.77;;;5.10;;
2123;SDS011;1068;52.460;13.528;2022-11-27T14:31:54;6.77;;;5.20;;
2123;SDS011;1068;52.460;13.528;2022-11-27T14:34:26;9.43;;;4.87;;
2123;SDS011;1068;52.460;13.528;2022-11-27T14:36:53;6.63;;;4.63;;
2123;SDS011;1068;52.460;13.528;2022-11-27T14:39:21;5.13;;;4.63;;
2123;SDS011;1068;52.460;13.528;2022-11-27T14:41:55;11.97;;;5.03;;
2123;SDS011;1068;52.460;13.528;2022-11-27T14:44:22;4.67;;;4.10;;
2123;SDS011;1068;52.460;13.528;2022-11-27T14:46:50;6.83;;;4.23;;
2123;SDS011;1068;52.460;13.528;2022-11-27T14:49:18;5.30;;;4.90;;
2123;SDS011;1068;52.460;13.528;2022-11-27T14:51:45;3.70;;;3.50;;
2123;SDS011;1068;52.460;13.528;2022-11-27T14:54:15;7.07;;;4.67;;
2123;SDS011;1068;52.460;13.528;2022-11-27T14:56:42;9.30;;;4.30;;
2123;SDS011;1068;52.460;13.528;2022-11-27T14:59:11;8.63;;;6.17;;
2123;SDS011;1068;52.460;13.528;2022-11-27T15:01:39;10.80;;;7.63;;